Latest Weather Observations for Naracoorte

IDS60801

Issued at 6:51 am CDT Tuesday 7 December 2021 (issued every 10 minutes, with the page automatically refreshed every 10 minutes)

About weather observations | Map of weather stations | Latest weather observations for SA | Other Formats
Station Details ID: 026099 Name: NARACOORTE AERODROME Lat: -36.98 Lon: 140.73 Height: 49.72 m
Data from the previous 72 hours. | See also: Recent months at Naracoorte
Date/Time
CDT
Temp
°C
App
Temp
°C
Dew
Point
°C
Rel
Hum
%
Delta-T
°C
Wind Press
QNH
hPa
Press
MSL
hPa
Rain since
9am
mm
Dir  Spd
km/h
Gust
km/h
Spd
kts
Gust
kts
07/06:30am 11.9 10.2 10.0 88 1.0 - 9 13 5 7 1013.7 1013.6 0.0
07/06:00am 11.7 9.3 10.1 90 0.8 - 13 17 7 9 1013.4 1013.3 0.0
07/05:30am 11.9 8.9 10.6 92 0.7 - 17 20 9 11 1013.2 1013.1 0.0
07/05:00am 11.9 9.6 10.6 92 0.7 - 13 20 7 11 1012.8 1012.7 0.0
07/04:30am 11.4 10.1 9.8 90 0.8 - 7 11 4 6 1012.5 1012.4 0.0
07/04:00am 11.0 10.1 9.3 89 0.9 - 4 7 2 4 1012.3 1012.2 0.0
07/03:30am 11.7 10.9 9.8 88 1.0 - 4 7 2 4 1012.3 1012.2 0.0
07/03:00am 11.9 10.0 9.1 83 1.4 - 9 11 5 6 1012.4 1012.3 0.0
07/02:30am 11.6 10.2 8.8 83 1.4 - 6 7 3 4 1012.2 1012.1 0.0
07/02:00am 11.8 10.2 8.6 81 1.6 - 7 9 4 5 1012.5 1012.4 0.0
07/01:30am 12.0 11.0 9.0 82 1.5 - 4 6 2 3 1012.6 1012.5 0.0
07/01:00am 10.9 10.1 8.1 83 1.4 - 2 6 1 3 1012.7 1012.6 0.0
07/12:30am 10.5 9.1 7.4 81 1.5 - 4 7 2 4 1012.8 1012.7 0.0
07/12:00am 11.3 9.7 8.2 81 1.5 - 6 7 3 4 1012.8 1012.7 0.0
 
Date/Time
CDT
Temp
°C
App
Temp
°C
Dew
Point
°C
Rel
Hum
%
Delta-T
°C
Wind Press
QNH
hPa
Press
MSL
hPa
Rain since
9am
mm
Dir  Spd
km/h
Gust
km/h
Spd
kts
Gust
kts
06/11:30pm 10.9 9.3 7.8 81 1.5 - 6 7 3 4 1012.8 1012.7 0.0
06/11:00pm 10.1 7.7 6.8 80 1.6 - 9 11 5 6 1012.7 1012.6 0.0
06/10:30pm 10.5 7.6 6.6 77 1.8 - 11 11 6 6 1012.7 1012.6 0.0
06/10:00pm 11.5 8.8 7.2 75 2.1 - 11 13 6 7 1012.5 1012.4 0.0
06/09:30pm 12.4 9.7 7.5 72 2.4 - 11 13 6 7 1012.2 1012.1 0.0
06/09:00pm 13.8 10.4 7.8 67 3.0 - 15 17 8 9 1012.0 1011.9 0.0
06/08:30pm 15.3 10.7 8.1 62 3.6 - 22 28 12 15 1011.9 1011.8 0.0
06/08:00pm 16.4 11.4 8.1 58 4.2 - 24 32 13 17 1011.7 1011.6 0.0
06/07:30pm 17.6 12.1 7.6 52 5.1 - 26 32 14 17 1011.4 1011.3 0.0
06/07:00pm 18.7 12.9 8.1 50 5.5 - 28 35 15 19 1010.9 1010.8 0.0
06/06:30pm 19.9 14.3 8.9 49 5.8 - 28 35 15 19 1010.6 1010.5 0.0
06/06:00pm 20.8 15.2 8.8 46 6.3 - 28 39 15 21 1010.4 1010.3 0.0
06/05:30pm 22.3 16.8 9.1 43 7.1 - 28 37 15 20 1010.1 1010.0 0.0
06/05:00pm 23.5 17.0 8.0 37 8.2 - 32 41 17 22 1010.0 1009.9 0.0
06/04:30pm 26.0 20.2 8.0 32 9.7 - 28 43 15 23 1009.7 1009.6 0.0
06/04:00pm 27.2 19.6 6.0 26 11.1 ENE 35 48 19 26 1009.6 1009.5 0.0
06/03:51pm 27.0 19.5 4.7 24 11.4 E 33 48 18 26 1009.6 1009.5 0.0
06/03:47pm 26.8 19.3 4.6 24 11.3 ESE 33 48 18 26 1009.5 1009.4 0.0
06/03:32pm 27.2 19.3 4.3 23 11.6 ESE 35 52 19 28 1009.5 1009.4 0.0
06/03:30pm 27.2 19.3 4.3 23 11.6 SE 35 52 19 28 1009.5 1009.4 0.0
06/03:29pm 27.3 19.3 3.7 22 11.8 SE 35 52 19 28 1009.5 1009.4 0.0
06/03:27pm 28.1 20.8 4.4 22 12.1 SE 32 44 17 24 1009.4 1009.3 0.0
06/03:12pm 27.3 19.2 3.1 21 12.0 SSE 35 50 19 27 1009.5 1009.4 0.0
06/03:00pm 28.0 19.7 4.3 22 12.1 SSE 37 52 20 28 1009.5 1009.4 0.0
06/02:54pm 27.8 19.0 3.5 21 12.2 ESE 39 52 21 28 1009.5 1009.4 0.0
06/02:50pm 27.8 19.4 3.5 21 12.2 ESE 37 52 20 28 1009.5 1009.4 0.0
06/02:48pm 27.7 19.2 3.4 21 12.1 ESE 37 52 20 28 1009.5 1009.4 0.0
06/02:41pm 27.6 19.6 4.0 22 11.9 SE 35 52 19 28 1009.5 1009.4 0.0
06/02:38pm 27.8 19.9 4.2 22 12.0 SE 35 48 19 26 1009.5 1009.4 0.0
06/02:32pm 28.4 20.5 4.6 22 12.2 E 35 50 19 27 1009.5 1009.4 0.0
06/02:30pm 28.1 20.6 4.4 22 12.1 ENE 33 50 18 27 1009.5 1009.4 0.0
06/02:17pm 28.5 20.6 4.1 21 12.4 SE 35 54 19 29 1009.4 1009.3 0.0
06/02:00pm 29.2 22.0 6.0 23 12.2 SE 33 44 18 24 1009.4 1009.3 0.0
06/01:59pm 28.8 21.5 5.6 23 12.1 ESE 33 44 18 24 1009.4 1009.3 0.0
06/01:37pm 29.3 22.7 4.0 20 12.9 SSW 28 54 15 29 1009.4 1009.3 0.0
06/01:30pm 30.0 23.3 3.9 19 13.4 S 28 37 15 20 1009.5 1009.4 0.0
06/01:00pm 28.7 21.8 2.8 19 12.9 WNW 28 44 15 24 1009.9 1009.8 0.0
06/12:30pm 28.7 21.8 2.8 19 12.9 NW 28 43 15 23 1010.1 1010.0 0.0
06/12:00pm 28.5 23.3 3.4 20 12.6 NNW 20 32 11 17 1010.3 1010.2 0.0
06/11:30am 28.8 22.8 3.6 20 12.7 NW 24 35 13 19 1010.4 1010.3 0.0
06/11:00am 27.8 22.7 4.2 22 12.0 NW 20 33 11 18 1010.8 1010.7 0.0
06/10:30am 26.8 22.0 4.6 24 11.3 NNW 19 30 10 16 1011.0 1010.9 0.0
06/10:00am 25.6 21.9 4.7 26 10.5 NNW 13 22 7 12 1011.3 1011.2 0.0
06/09:30am 23.4 20.6 7.1 35 8.5 NNE 11 17 6 9 1011.6 1011.5 0.0
06/09:00am 21.7 17.7 8.2 42 7.1 NNE 19 26 10 14 1012.0 1011.9 0.0
06/08:30am 20.2 16.1 8.8 48 6.0 NE 20 30 11 16 1012.1 1012.0 0.0
06/08:00am 18.3 14.1 9.6 57 4.6 NE 22 30 12 16 1012.2 1012.1 0.0
06/07:30am 15.1 11.6 8.6 65 3.3 NE 17 28 9 15 1012.2 1012.1 0.0
06/07:00am 12.2 10.4 8.1 76 2.0 NE 7 11 4 6 1012.2 1012.1 0.0
06/06:30am 10.6 8.9 8.2 85 1.2 NE 7 13 4 7 1012.3 1012.2 0.0
06/06:00am 9.0 6.7 7.5 90 0.7 NE 9 13 5 7 1012.3 1012.2 0.0
06/05:30am 6.2 3.9 4.7 90 0.7 E 6 9 3 5 1012.2 1012.1 0.0
06/05:00am 6.1 3.7 4.4 89 0.7 ENE 6 11 3 6 1012.1 1012.0 0.0
06/04:30am 6.0 3.6 4.3 89 0.7 SE 6 7 3 4 1012.4 1012.3 0.0
06/04:00am 6.0 3.0 4.2 88 0.8 SE 9 9 5 5 1012.5 1012.4 0.0
06/03:30am 6.1 3.1 4.1 87 0.9 SE 9 11 5 6 1012.7 1012.6 0.0
06/03:00am 6.7 4.3 4.4 85 1.0 SSE 6 7 3 4 1013.0 1012.9 0.0
06/02:30am 7.7 5.4 5.5 86 1.0 S 7 9 4 5 1013.2 1013.1 0.0
06/02:00am 7.9 5.6 5.5 85 1.1 S 7 9 4 5 1013.6 1013.5 0.0
06/01:30am 9.2 6.7 6.5 83 1.3 SSE 9 11 5 6 1013.9 1013.8 0.0
06/01:00am 10.2 7.4 6.9 80 1.6 SSE 11 13 6 7 1014.3 1014.2 0.0
06/12:30am 11.9 8.9 7.6 75 2.1 SE 13 15 7 8 1014.7 1014.6 0.0
06/12:00am 12.7 9.8 8.0 73 2.3 SSE 13 17 7 9 1015.2 1015.1 0.0
 
Date/Time
CDT
Temp
°C
App
Temp
°C
Dew
Point
°C
Rel
Hum
%
Delta-T
°C
Wind Press
QNH
hPa
Press
MSL
hPa
Rain since
9am
mm
Dir  Spd
km/h
Gust
km/h
Spd
kts
Gust
kts
05/11:30pm 13.9 10.7 8.5 70 2.7 SE 15 20 8 11 1015.5 1015.4 0.0
05/11:00pm 12.4 9.5 8.3 76 2.0 SSE 13 17 7 9 1015.5 1015.4 0.0
05/10:30pm 12.3 9.4 8.2 76 2.0 SSE 13 17 7 9 1015.7 1015.6 0.0
05/10:00pm 13.5 10.7 8.4 71 2.6 SSE 13 15 7 8 1015.6 1015.5 0.0
05/09:30pm 14.9 11.4 8.6 66 3.2 S 17 20 9 11 1015.6 1015.5 0.0
05/09:00pm 15.9 12.0 8.6 62 3.7 S 19 22 10 12 1015.6 1015.5 0.0
05/08:30pm 17.6 13.5 8.5 55 4.7 S 20 26 11 14 1015.5 1015.4 0.0
05/08:00pm 20.0 15.7 8.0 46 6.2 SSE 20 32 11 17 1015.3 1015.2 0.0
05/07:30pm 23.0 19.2 4.0 29 9.3 S 13 17 7 9 1015.2 1015.1 0.0
05/07:00pm 23.0 18.7 3.0 27 9.6 S 15 19 8 10 1015.1 1015.0 0.0
05/06:30pm 23.8 20.1 2.6 25 10.2 SW 11 19 6 10 1015.2 1015.1 0.0
05/06:00pm 24.1 19.5 1.7 23 10.6 S 15 22 8 12 1015.3 1015.2 0.0
05/05:30pm 25.1 21.2 1.3 21 11.2 SSW 11 15 6 8 1015.5 1015.4 0.0
05/05:00pm 24.7 20.4 0.9 21 11.1 SW 13 22 7 12 1015.7 1015.6 0.0
05/04:30pm 24.6 21.1 1.5 22 10.9 S 9 17 5 9 1015.9 1015.8 0.0
05/04:00pm 24.6 20.8 1.5 22 10.9 WSW 11 17 6 9 1016.3 1016.2 0.0
05/03:30pm 24.4 19.0 1.3 22 10.8 SW 19 24 10 13 1016.6 1016.5 0.0
05/03:00pm 24.0 20.2 1.6 23 10.5 S 11 24 6 13 1017.0 1016.8 0.0
05/02:30pm 24.1 19.8 1.1 22 10.7 SSW 13 22 7 12 1017.5 1017.3 0.0
05/02:00pm 23.4 18.5 2.3 25 10.0 SSW 17 24 9 13 1017.7 1017.5 0.0
05/01:30pm 22.4 18.5 1.4 25 9.7 SSE 11 20 6 11 1018.1 1017.9 0.0
05/01:00pm 22.3 18.3 0.8 24 9.9 SSE 11 22 6 12 1018.7 1018.5 0.0
05/12:30pm 20.6 17.1 1.0 27 8.9 S 9 17 5 9 1019.0 1018.8 0.0
05/12:00pm 20.1 15.7 0.5 27 8.7 SE 13 28 7 15 1019.7 1019.6 0.0
05/11:30am 18.9 14.4 1.9 32 7.7 SSE 15 28 8 15 1020.1 1020.0 0.0
05/11:00am 18.7 14.8 3.3 36 7.2 ESE 13 32 7 17 1020.6 1020.5 0.0
05/10:30am 17.8 14.3 3.3 38 6.7 SSE 11 20 6 11 1021.2 1021.1 0.0
05/10:00am 16.6 12.9 4.3 44 5.8 ESE 13 20 7 11 1021.5 1021.4 0.0
05/09:30am 16.1 12.2 5.4 49 5.1 SE 15 22 8 12 1021.6 1021.5 0.0
05/09:00am 15.1 11.0 6.1 55 4.3 ESE 17 24 9 13 1021.9 1021.8 0.0
05/08:30am 14.2 9.9 6.8 61 3.6 ESE 19 26 10 14 1021.9 1021.8 0.0
05/08:00am 12.7 11.4 10.1 84 1.3 ESE 7 13 4 7 1022.0 1021.9 0.0
05/07:30am 8.7 7.0 7.5 92 0.6 S 6 7 3 4 1022.0 1021.9 0.0
05/07:00am 6.7 4.6 5.7 93 0.4 S 6 6 3 3 1021.8 1021.7 0.0
05/06:30am 4.7 2.0 3.8 94 0.4 SSE 7 7 4 4 1021.6 1021.5 0.0
05/06:00am 2.8 -0.6 1.9 94 0.3 SSE 9 9 5 5 1021.3 1021.2 0.0
05/05:30am 2.4 0.6 1.4 93 0.4 CALM 0 0 0 0 1021.0 1020.9 0.0
05/05:00am 3.4 1.8 2.4 93 0.4 CALM 0 0 0 0 1020.9 1020.8 0.0
05/04:30am 3.5 0.6 2.5 93 0.4 SE 7 9 4 5 1020.8 1020.7 0.0
05/04:00am 4.3 1.1 3.3 93 0.4 SSE 9 11 5 6 1021.0 1020.9 0.0
05/03:30am 4.6 1.8 3.4 92 0.5 SSE 7 9 4 5 1021.0 1020.9 0.0
05/03:00am 5.3 1.9 4.1 92 0.5 SSE 11 13 6 7 1021.2 1021.1 0.0
05/02:30am 5.3 2.3 4.0 91 0.5 SSE 9 11 5 6 1021.5 1021.4 0.0
05/02:00am 6.4 2.8 5.0 91 0.6 SSE 13 15 7 8 1021.8 1021.7 0.0
05/01:30am 7.0 3.1 5.5 90 0.7 SSE 15 15 8 8 1022.0 1021.9 0.0
05/01:00am 7.1 3.6 5.4 89 0.8 SSE 13 15 7 8 1022.3 1022.2 0.0
05/12:30am 7.4 3.9 5.5 88 0.8 SSE 13 15 7 8 1022.5 1022.4 0.0
05/12:00am 6.9 3.6 4.7 86 1.0 SSE 11 13 6 7 1022.4 1022.3 0.0
 
Date/Time
CDT
Temp
°C
App
Temp
°C
Dew
Point
°C
Rel
Hum
%
Delta-T
°C
Wind Press
QNH
hPa
Press
MSL
hPa
Rain since
9am
mm
Dir  Spd
km/h
Gust
km/h
Spd
kts
Gust
kts
04/11:30pm 8.0 4.9 5.6 85 1.1 SSE 11 13 6 7 1022.4 1022.3 0.0
04/11:00pm 7.9 4.8 5.4 84 1.1 SSE 11 13 6 7 1022.4 1022.3 0.0
04/10:30pm 8.3 5.2 5.4 82 1.3 SSE 11 11 6 6 1022.3 1022.2 0.0
04/10:00pm 9.4 6.0 6.1 80 1.5 SSE 13 15 7 8 1022.3 1022.2 0.0
04/09:30pm 10.0 6.9 5.6 74 2.0 SSE 11 13 6 7 1022.0 1021.9 0.0
04/09:00pm 12.4 8.9 7.1 70 2.5 S 15 17 8 9 1021.8 1021.7 0.0
04/08:30pm 14.1 9.7 7.2 63 3.4 SSW 20 26 11 14 1021.8 1021.7 0.0
04/08:00pm 15.8 11.4 7.3 57 4.2 S 20 28 11 15 1021.6 1021.5 0.0
04/07:30pm 17.4 11.8 7.2 51 5.1 SSW 26 35 14 19 1021.4 1021.3 0.0
04/07:00pm 18.5 13.2 7.0 47 5.8 SSW 24 30 13 16 1020.9 1020.8 0.0
04/06:30pm 17.5 12.3 7.3 51 5.1 S 24 30 13 16 1020.6 1020.5 0.0
04/06:00pm 18.3 13.1 7.4 49 5.5 S 24 30 13 16 1020.2 1020.1 0.0
04/05:30pm 18.8 13.7 7.6 48 5.7 SSW 24 32 13 17 1020.2 1020.1 0.0
04/05:00pm 20.7 15.6 7.7 43 6.7 SW 24 32 13 17 1020.3 1020.2 0.0
04/04:30pm 19.5 14.2 8.5 49 5.7 S 26 37 14 20 1020.3 1020.2 0.0
04/04:00pm 21.1 16.1 8.0 43 6.8 SSW 24 35 13 19 1020.3 1020.2 0.0
04/03:30pm 21.2 15.2 8.5 44 6.7 SSW 30 41 16 22 1020.4 1020.3 0.0
04/03:00pm 20.4 15.7 7.7 44 6.5 SSW 22 33 12 18 1020.7 1020.6 0.0
04/02:30pm 19.3 13.5 8.0 48 5.8 S 28 39 15 21 1021.0 1020.9 0.0
04/02:00pm 19.5 13.9 7.3 45 6.2 S 26 39 14 21 1021.1 1021.0 0.0
04/01:30pm 20.5 15.1 6.5 40 7.0 S 24 39 13 21 1021.1 1021.0 0.0
04/01:00pm 20.4 15.8 6.4 40 7.0 SSW 20 32 11 17 1021.3 1021.2 0.0
04/12:30pm 19.6 14.9 6.0 41 6.7 S 20 32 11 17 1021.7 1021.6 0.0
04/12:00pm 19.7 15.9 7.4 45 6.3 SSW 17 26 9 14 1021.9 1021.8 0.0
04/11:30am 18.3 14.8 7.4 49 5.5 SSW 15 28 8 15 1022.2 1022.1 0.0
04/11:00am 17.2 12.9 7.8 54 4.8 SSW 20 30 11 16 1022.4 1022.3 0.0
04/10:30am 16.8 11.6 7.2 53 4.8 SW 24 33 13 18 1022.4 1022.3 0.0
04/10:00am 17.4 12.4 6.6 49 5.3 SW 22 32 12 17 1022.2 1022.1 0.0
04/09:30am 16.4 11.5 7.1 54 4.6 SSW 22 30 12 16 1022.1 1022.0 0.0
04/09:00am 15.9 10.7 7.4 57 4.2 SSW 24 33 13 18 1021.8 1021.7 0.0
04/08:30am 16.0 11.3 7.7 58 4.1 SW 22 32 12 17 1021.5 1021.4 0.0
04/08:00am 15.0 10.5 8.7 66 3.2 SW 22 28 12 15 1021.3 1021.2 0.0
04/07:30am 12.4 7.6 8.9 79 1.7 SW 24 39 13 21 1021.3 1021.2 0.0
04/07:27am 12.7 8.5 8.4 75 2.1 SW 20 39 11 21 1021.3 1021.2 0.0
04/07:00am 12.2 10.1 8.3 77 1.9 WSW 9 13 5 7 1020.7 1020.6 0.0

Other formats

Comma delimited format used in spreadsheet applications
http://www.bom.gov.au/fwo/IDS60801/IDS60801.94820.axf

JavaScript Object Notation format (JSON) in row-major order
http://www.bom.gov.au/fwo/IDS60801/IDS60801.94820.json

Data quality

Most of these data are generated automatically and are frequently updated. Quality checks on data are not normally performed. It is possible for incorrect values to appear. Refer to information at About Latest Weather Observations and please check the disclaimer before using these data.